sensor_id;sensor_type;location;lat;lon;timestamp;pressure;altitude;pressure_sealevel;temperature;humidity
18022;BME280;9136;48.822;7.966;2023-02-13T00:00:00;102193.16;;;3.72;100.00
18022;BME280;9136;48.822;7.966;2023-02-13T00:02:49;102182.72;;;3.71;100.00
18022;BME280;9136;48.822;7.966;2023-02-13T00:05:37;102184.50;;;3.73;100.00
18022;BME280;9136;48.822;7.966;2023-02-13T00:08:24;102184.19;;;3.61;100.00
18022;BME280;9136;48.822;7.966;2023-02-13T00:11:14;102176.50;;;3.66;100.00
18022;BME280;9136;48.822;7.966;2023-02-13T00:14:02;102170.81;;;3.48;100.00
18022;BME280;9136;48.822;7.966;2023-02-13T00:16:50;102174.22;;;3.47;100.00
18022;BME280;9136;48.822;7.966;2023-02-13T00:19:38;102180.41;;;3.50;100.00
18022;BME280;9136;48.822;7.966;2023-02-13T00:22:26;102173.31;;;3.44;100.00
18022;BME280;9136;48.822;7.966;2023-02-13T00:25:14;102160.91;;;3.34;100.00
18022;BME280;9136;48.822;7.966;2023-02-13T00:28:03;102145.03;;;3.24;100.00
18022;BME280;9136;48.822;7.966;2023-02-13T00:30:51;102165.19;;;3.32;100.00
18022;BME280;9136;48.822;7.966;2023-02-13T00:33:39;102170.03;;;3.20;100.00
18022;BME280;9136;48.822;7.966;2023-02-13T00:36:27;102181.63;;;3.31;100.00
18022;BME280;9136;48.822;7.966;2023-02-13T00:39:15;102173.47;;;3.19;100.00
18022;BME280;9136;48.822;7.966;2023-02-13T00:42:03;102177.88;;;3.22;100.00
18022;BME280;9136;48.822;7.966;2023-02-13T00:44:53;102186.53;;;3.22;100.00
18022;BME280;9136;48.822;7.966;2023-02-13T00:47:41;102168.03;;;3.10;100.00
18022;BME280;9136;48.822;7.966;2023-02-13T00:50:29;102173.88;;;3.03;100.00
18022;BME280;9136;48.822;7.966;2023-02-13T00:53:17;102198.16;;;3.05;100.00
18022;BME280;9136;48.822;7.966;2023-02-13T00:56:06;102166.81;;;2.99;100.00
18022;BME280;9136;48.822;7.966;2023-02-13T00:58:54;102188.66;;;3.05;100.00
18022;BME280;9136;48.822;7.966;2023-02-13T01:01:43;102181.34;;;2.92;100.00
18022;BME280;9136;48.822;7.966;2023-02-13T01:04:31;102183.94;;;2.92;100.00
18022;BME280;9136;48.822;7.966;2023-02-13T01:07:19;102184.00;;;2.95;100.00
18022;BME280;9136;48.822;7.966;2023-02-13T01:10:07;102189.13;;;2.92;100.00
18022;BME280;9136;48.822;7.966;2023-02-13T01:12:55;102196.78;;;2.89;100.00
18022;BME280;9136;48.822;7.966;2023-02-13T01:15:44;102198.44;;;2.85;100.00
18022;BME280;9136;48.822;7.966;2023-02-13T01:18:33;102202.47;;;2.76;100.00
18022;BME280;9136;48.822;7.966;2023-02-13T01:21:21;102202.75;;;2.58;100.00
18022;BME280;9136;48.822;7.966;2023-02-13T01:24:09;102188.66;;;2.50;100.00
18022;BME280;9136;48.822;7.966;2023-02-13T01:26:57;102194.81;;;2.52;100.00
18022;BME280;9136;48.822;7.966;2023-02-13T01:29:47;102202.94;;;2.63;100.00
18022;BME280;9136;48.822;7.966;2023-02-13T01:32:35;102213.56;;;2.70;100.00
18022;BME280;9136;48.822;7.966;2023-02-13T01:35:24;102206.22;;;2.58;100.00
18022;BME280;9136;48.822;7.966;2023-02-13T01:38:12;102203.50;;;2.54;100.00
18022;BME280;9136;48.822;7.966;2023-02-13T01:41:00;102214.28;;;2.66;100.00
18022;BME280;9136;48.822;7.966;2023-02-13T01:43:51;102203.06;;;2.67;100.00
18022;BME280;9136;48.822;7.966;2023-02-13T01:46:42;102195.53;;;2.48;100.00
18022;BME280;9136;48.822;7.966;2023-02-13T01:49:31;102190.97;;;2.41;100.00
18022;BME280;9136;48.822;7.966;2023-02-13T01:52:20;102207.28;;;2.37;100.00
18022;BME280;9136;48.822;7.966;2023-02-13T01:55:08;102202.63;;;2.26;100.00
18022;BME280;9136;48.822;7.966;2023-02-13T01:58:01;102206.88;;;2.24;100.00
18022;BME280;9136;48.822;7.966;2023-02-13T02:00:52;102197.97;;;2.16;100.00
18022;BME280;9136;48.822;7.966;2023-02-13T02:03:43;102214.38;;;2.17;100.00
18022;BME280;9136;48.822;7.966;2023-02-13T02:06:36;102197.16;;;2.19;100.00
18022;BME280;9136;48.822;7.966;2023-02-13T02:09:31;102192.72;;;2.15;100.00
18022;BME280;9136;48.822;7.966;2023-02-13T02:12:26;102208.63;;;2.25;100.00
18022;BME280;9136;48.822;7.966;2023-02-13T02:15:16;102196.19;;;2.15;100.00
18022;BME280;9136;48.822;7.966;2023-02-13T02:18:05;102192.84;;;2.19;100.00
18022;BME280;9136;48.822;7.966;2023-02-13T02:21:23;102185.66;;;2.11;100.00
18022;BME280;9136;48.822;7.966;2023-02-13T02:24:36;102202.44;;;2.22;100.00
18022;BME280;9136;48.822;7.966;2023-02-13T02:27:57;102209.78;;;2.34;100.00
18022;BME280;9136;48.822;7.966;2023-02-13T02:31:12;102201.13;;;2.33;100.00
18022;BME280;9136;48.822;7.966;2023-02-13T02:34:12;102187.97;;;2.28;100.00
18022;BME280;9136;48.822;7.966;2023-02-13T02:37:16;102186.38;;;2.32;100.00
18022;BME280;9136;48.822;7.966;2023-02-13T02:40:16;102179.38;;;2.29;100.00
18022;BME280;9136;48.822;7.966;2023-02-13T02:43:20;102178.97;;;2.17;100.00
18022;BME280;9136;48.822;7.966;2023-02-13T02:46:17;102179.19;;;2.23;100.00
18022;BME280;9136;48.822;7.966;2023-02-13T02:49:13;102187.81;;;2.22;100.00
18022;BME280;9136;48.822;7.966;2023-02-13T02:52:26;102184.47;;;2.26;100.00
18022;BME280;9136;48.822;7.966;2023-02-13T02:55:26;102200.31;;;2.36;100.00
18022;BME280;9136;48.822;7.966;2023-02-13T02:58:20;102191.31;;;2.24;100.00
18022;BME280;9136;48.822;7.966;2023-02-13T03:01:28;102198.88;;;2.44;100.00
18022;BME280;9136;48.822;7.966;2023-02-13T03:04:39;102204.97;;;2.46;100.00
18022;BME280;9136;48.822;7.966;2023-02-13T03:07:44;102177.84;;;2.36;100.00
18022;BME280;9136;48.822;7.966;2023-02-13T03:10:35;102186.72;;;2.43;100.00
18022;BME280;9136;48.822;7.966;2023-02-13T03:13:44;102206.09;;;2.54;100.00
18022;BME280;9136;48.822;7.966;2023-02-13T03:16:33;102203.38;;;2.51;100.00
18022;BME280;9136;48.822;7.966;2023-02-13T03:19:52;102182.78;;;2.28;100.00
18022;BME280;9136;48.822;7.966;2023-02-13T03:23:11;102200.41;;;2.39;100.00
18022;BME280;9136;48.822;7.966;2023-02-13T03:26:14;102189.19;;;2.40;100.00
18022;BME280;9136;48.822;7.966;2023-02-13T03:29:13;102208.69;;;2.54;100.00
18022;BME280;9136;48.822;7.966;2023-02-13T03:32:27;102205.81;;;2.45;100.00
18022;BME280;9136;48.822;7.966;2023-02-13T03:35:36;102220.00;;;2.56;100.00
18022;BME280;9136;48.822;7.966;2023-02-13T03:38:50;102223.44;;;2.55;100.00
18022;BME280;9136;48.822;7.966;2023-02-13T03:41:44;102231.31;;;2.58;100.00
18022;BME280;9136;48.822;7.966;2023-02-13T03:44:37;102229.50;;;2.55;100.00
18022;BME280;9136;48.822;7.966;2023-02-13T03:47:27;102236.31;;;2.52;100.00
18022;BME280;9136;48.822;7.966;2023-02-13T03:50:15;102226.84;;;2.54;100.00
18022;BME280;9136;48.822;7.966;2023-02-13T03:53:07;102216.38;;;2.51;100.00
18022;BME280;9136;48.822;7.966;2023-02-13T03:55:57;102234.69;;;2.55;100.00
18022;BME280;9136;48.822;7.966;2023-02-13T03:59:08;102226.75;;;2.51;100.00
18022;BME280;9136;48.822;7.966;2023-02-13T04:02:07;102249.63;;;2.63;100.00
18022;BME280;9136;48.822;7.966;2023-02-13T04:05:00;102229.63;;;2.60;100.00
18022;BME280;9136;48.822;7.966;2023-02-13T04:07:50;102233.91;;;2.58;100.00
18022;BME280;9136;48.822;7.966;2023-02-13T04:10:45;102236.69;;;2.64;100.00
18022;BME280;9136;48.822;7.966;2023-02-13T04:13:44;102233.13;;;2.61;100.00
18022;BME280;9136;48.822;7.966;2023-02-13T04:16:37;102248.84;;;2.65;100.00
18022;BME280;9136;48.822;7.966;2023-02-13T04:19:26;102225.22;;;2.57;100.00
18022;BME280;9136;48.822;7.966;2023-02-13T04:22:14;102245.94;;;2.56;100.00
18022;BME280;9136;48.822;7.966;2023-02-13T04:25:03;102245.31;;;2.63;100.00
18022;BME280;9136;48.822;7.966;2023-02-13T04:27:52;102241.59;;;2.55;100.00
18022;BME280;9136;48.822;7.966;2023-02-13T04:30:41;102232.00;;;2.52;100.00
18022;BME280;9136;48.822;7.966;2023-02-13T04:33:29;102234.91;;;2.62;100.00
18022;BME280;9136;48.822;7.966;2023-02-13T04:36:17;102231.34;;;2.59;100.00
18022;BME280;9136;48.822;7.966;2023-02-13T04:39:04;102244.72;;;2.72;100.00
18022;BME280;9136;48.822;7.966;2023-02-13T04:41:52;102229.72;;;2.62;100.00
18022;BME280;9136;48.822;7.966;2023-02-13T04:44:42;102229.72;;;2.62;100.00
18022;BME280;9136;48.822;7.966;2023-02-13T04:47:30;102233.31;;;2.67;100.00
18022;BME280;9136;48.822;7.966;2023-02-13T04:50:18;102239.38;;;2.67;100.00
18022;BME280;9136;48.822;7.966;2023-02-13T04:53:06;102240.38;;;2.71;100.00
18022;BME280;9136;48.822;7.966;2023-02-13T04:55:54;102252.53;;;2.72;100.00
18022;BME280;9136;48.822;7.966;2023-02-13T04:58:42;102251.56;;;2.70;100.00
18022;BME280;9136;48.822;7.966;2023-02-13T05:01:31;102249.81;;;2.69;100.00
18022;BME280;9136;48.822;7.966;2023-02-13T05:04:19;102235.81;;;2.64;100.00
18022;BME280;9136;48.822;7.966;2023-02-13T05:07:08;102248.22;;;2.72;100.00
18022;BME280;9136;48.822;7.966;2023-02-13T05:09:56;102237.56;;;2.65;100.00
18022;BME280;9136;48.822;7.966;2023-02-13T05:12:44;102243.72;;;2.68;100.00
18022;BME280;9136;48.822;7.966;2023-02-13T05:15:32;102237.78;;;2.71;100.00
18022;BME280;9136;48.822;7.966;2023-02-13T05:18:22;102234.25;;;2.69;100.00
18022;BME280;9136;48.822;7.966;2023-02-13T05:21:10;102240.44;;;2.72;100.00
18022;BME280;9136;48.822;7.966;2023-02-13T05:24:15;102248.09;;;2.69;100.00
18022;BME280;9136;48.822;7.966;2023-02-13T05:27:03;102243.66;;;2.65;100.00
18022;BME280;9136;48.822;7.966;2023-02-13T05:29:51;102236.41;;;2.55;100.00
18022;BME280;9136;48.822;7.966;2023-02-13T05:32:39;102233.59;;;2.49;100.00
18022;BME280;9136;48.822;7.966;2023-02-13T05:35:30;102230.91;;;2.46;100.00
18022;BME280;9136;48.822;7.966;2023-02-13T05:38:18;102232.53;;;2.42;100.00
18022;BME280;9136;48.822;7.966;2023-02-13T05:41:06;102232.72;;;2.48;100.00
18022;BME280;9136;48.822;7.966;2023-02-13T05:43:54;102249.47;;;2.58;100.00
18022;BME280;9136;48.822;7.966;2023-02-13T05:46:43;102226.53;;;2.43;100.00
18022;BME280;9136;48.822;7.966;2023-02-13T05:49:31;102236.97;;;2.46;100.00
18022;BME280;9136;48.822;7.966;2023-02-13T05:52:20;102212.25;;;2.30;100.00
18022;BME280;9136;48.822;7.966;2023-02-13T05:55:09;102232.28;;;2.35;100.00
18022;BME280;9136;48.822;7.966;2023-02-13T05:57:57;102249.88;;;2.43;100.00
18022;BME280;9136;48.822;7.966;2023-02-13T06:00:45;102254.41;;;2.50;100.00
18022;BME280;9136;48.822;7.966;2023-02-13T06:03:34;102219.28;;;2.33;100.00
18022;BME280;9136;48.822;7.966;2023-02-13T06:06:22;102248.41;;;2.51;100.00
18022;BME280;9136;48.822;7.966;2023-02-13T06:09:12;102257.06;;;2.52;100.00
18022;BME280;9136;48.822;7.966;2023-02-13T06:12:00;102249.94;;;2.46;100.00
18022;BME280;9136;48.822;7.966;2023-02-13T06:14:48;102245.44;;;2.41;100.00
18022;BME280;9136;48.822;7.966;2023-02-13T06:17:36;102251.41;;;2.38;100.00
18022;BME280;9136;48.822;7.966;2023-02-13T06:20:24;102232.16;;;2.32;100.00
18022;BME280;9136;48.822;7.966;2023-02-13T06:23:12;102256.63;;;2.40;100.00
18022;BME280;9136;48.822;7.966;2023-02-13T06:26:16;102250.63;;;2.41;100.00
18022;BME280;9136;48.822;7.966;2023-02-13T06:29:04;102252.47;;;2.43;100.00
18022;BME280;9136;48.822;7.966;2023-02-13T06:31:52;102243.00;;;2.45;100.00
18022;BME280;9136;48.822;7.966;2023-02-13T06:34:40;102241.00;;;2.37;100.00
18022;BME280;9136;48.822;7.966;2023-02-13T06:37:28;102248.72;;;2.35;100.00
18022;BME280;9136;48.822;7.966;2023-02-13T06:40:16;102270.91;;;2.52;100.00
18022;BME280;9136;48.822;7.966;2023-02-13T06:43:06;102254.16;;;2.43;100.00
18022;BME280;9136;48.822;7.966;2023-02-13T06:45:54;102275.22;;;2.52;100.00
18022;BME280;9136;48.822;7.966;2023-02-13T06:48:41;102249.69;;;2.39;100.00
18022;BME280;9136;48.822;7.966;2023-02-13T06:51:29;102262.03;;;2.46;100.00
18022;BME280;9136;48.822;7.966;2023-02-13T06:54:17;102270.03;;;2.52;100.00
18022;BME280;9136;48.822;7.966;2023-02-13T06:57:05;102278.00;;;2.58;100.00
18022;BME280;9136;48.822;7.966;2023-02-13T06:59:54;102262.88;;;2.45;100.00
18022;BME280;9136;48.822;7.966;2023-02-13T07:02:43;102269.50;;;2.37;100.00
18022;BME280;9136;48.822;7.966;2023-02-13T07:05:31;102260.84;;;2.36;100.00
18022;BME280;9136;48.822;7.966;2023-02-13T07:08:19;102279.41;;;2.48;100.00
18022;BME280;9136;48.822;7.966;2023-02-13T07:11:07;102275.00;;;2.46;100.00
18022;BME280;9136;48.822;7.966;2023-02-13T07:13:55;102285.78;;;2.58;100.00
18022;BME280;9136;48.822;7.966;2023-02-13T07:16:45;102302.38;;;2.62;100.00
18022;BME280;9136;48.822;7.966;2023-02-13T07:19:33;102289.91;;;2.51;100.00
18022;BME280;9136;48.822;7.966;2023-02-13T07:22:20;102288.91;;;2.48;100.00
18022;BME280;9136;48.822;7.966;2023-02-13T07:25:08;102306.47;;;2.55;100.00
18022;BME280;9136;48.822;7.966;2023-02-13T07:28:00;102310.81;;;2.56;100.00
18022;BME280;9136;48.822;7.966;2023-02-13T07:30:48;102318.91;;;2.65;100.00
18022;BME280;9136;48.822;7.966;2023-02-13T07:33:38;102322.47;;;2.69;100.00
18022;BME280;9136;48.822;7.966;2023-02-13T07:36:26;102310.75;;;2.54;100.00
18022;BME280;9136;48.822;7.966;2023-02-13T07:39:14;102320.34;;;2.57;100.00
18022;BME280;9136;48.822;7.966;2023-02-13T07:42:02;102325.75;;;2.63;100.00
18022;BME280;9136;48.822;7.966;2023-02-13T07:44:50;102298.44;;;2.49;100.00
18022;BME280;9136;48.822;7.966;2023-02-13T07:47:38;102323.03;;;2.60;100.00
18022;BME280;9136;48.822;7.966;2023-02-13T07:50:28;102307.16;;;2.51;100.00
18022;BME280;9136;48.822;7.966;2023-02-13T07:53:16;102301.47;;;2.61;100.00
18022;BME280;9136;48.822;7.966;2023-02-13T07:56:05;102309.19;;;2.59;100.00
18022;BME280;9136;48.822;7.966;2023-02-13T07:58:53;102324.88;;;2.63;100.00
18022;BME280;9136;48.822;7.966;2023-02-13T08:01:40;102312.97;;;2.69;100.00
18022;BME280;9136;48.822;7.966;2023-02-13T08:04:28;102332.56;;;2.86;100.00
18022;BME280;9136;48.822;7.966;2023-02-13T08:07:18;102326.41;;;2.83;100.00
18022;BME280;9136;48.822;7.966;2023-02-13T08:10:08;102317.63;;;2.79;100.00
18022;BME280;9136;48.822;7.966;2023-02-13T08:13:14;102332.44;;;2.82;100.00
18022;BME280;9136;48.822;7.966;2023-02-13T08:16:04;102325.53;;;2.82;100.00
18022;BME280;9136;48.822;7.966;2023-02-13T08:18:52;102329.63;;;2.76;100.00
18022;BME280;9136;48.822;7.966;2023-02-13T08:21:40;102313.63;;;2.62;100.00
18022;BME280;9136;48.822;7.966;2023-02-13T08:24:29;102316.84;;;2.55;100.00
18022;BME280;9136;48.822;7.966;2023-02-13T08:27:17;102330.22;;;2.67;100.00
18022;BME280;9136;48.822;7.966;2023-02-13T08:30:08;102335.63;;;2.73;100.00
18022;BME280;9136;48.822;7.966;2023-02-13T08:32:56;102337.72;;;2.85;100.00
18022;BME280;9136;48.822;7.966;2023-02-13T08:35:44;102322.06;;;2.82;100.00
18022;BME280;9136;48.822;7.966;2023-02-13T08:38:31;102332.34;;;3.06;100.00
18022;BME280;9136;48.822;7.966;2023-02-13T08:41:21;102332.03;;;2.97;100.00
18022;BME280;9136;48.822;7.966;2023-02-13T08:44:09;102318.06;;;2.92;100.00
18022;BME280;9136;48.822;7.966;2023-02-13T08:46:57;102321.34;;;2.87;100.00
18022;BME280;9136;48.822;7.966;2023-02-13T08:49:47;102323.41;;;2.98;100.00
18022;BME280;9136;48.822;7.966;2023-02-13T08:52:35;102311.78;;;3.12;100.00
18022;BME280;9136;48.822;7.966;2023-02-13T08:55:22;102316.66;;;3.30;100.00
18022;BME280;9136;48.822;7.966;2023-02-13T08:58:12;102329.03;;;3.38;100.00
18022;BME280;9136;48.822;7.966;2023-02-13T09:01:03;102303.19;;;3.43;100.00
18022;BME280;9136;48.822;7.966;2023-02-13T09:03:51;102305.59;;;3.37;100.00
18022;BME280;9136;48.822;7.966;2023-02-13T09:06:39;102315.91;;;3.34;100.00
18022;BME280;9136;48.822;7.966;2023-02-13T09:09:27;102316.88;;;3.37;100.00
18022;BME280;9136;48.822;7.966;2023-02-13T09:12:15;102311.59;;;3.34;100.00
18022;BME280;9136;48.822;7.966;2023-02-13T09:15:05;102320.72;;;3.50;100.00
18022;BME280;9136;48.822;7.966;2023-02-13T09:17:53;102310.41;;;3.53;100.00
18022;BME280;9136;48.822;7.966;2023-02-13T09:20:41;102294.47;;;3.41;100.00
18022;BME280;9136;48.822;7.966;2023-02-13T09:23:30;102320.25;;;3.63;100.00
18022;BME280;9136;48.822;7.966;2023-02-13T09:26:18;102301.69;;;3.51;100.00
18022;BME280;9136;48.822;7.966;2023-02-13T09:29:08;102312.44;;;3.63;100.00
18022;BME280;9136;48.822;7.966;2023-02-13T09:31:57;102331.56;;;3.65;100.00
18022;BME280;9136;48.822;7.966;2023-02-13T09:34:45;102323.91;;;3.70;100.00
18022;BME280;9136;48.822;7.966;2023-02-13T09:37:33;102338.91;;;3.79;100.00
18022;BME280;9136;48.822;7.966;2023-02-13T09:40:27;102326.63;;;3.74;100.00
18022;BME280;9136;48.822;7.966;2023-02-13T09:43:24;102340.63;;;3.78;100.00
18022;BME280;9136;48.822;7.966;2023-02-13T09:46:17;102314.13;;;3.61;100.00
18022;BME280;9136;48.822;7.966;2023-02-13T09:49:11;102316.72;;;3.61;100.00
18022;BME280;9136;48.822;7.966;2023-02-13T09:52:01;102313.94;;;3.55;100.00
18022;BME280;9136;48.822;7.966;2023-02-13T09:54:48;102338.47;;;3.65;100.00
18022;BME280;9136;48.822;7.966;2023-02-13T09:57:42;102322.81;;;3.62;100.00
18022;BME280;9136;48.822;7.966;2023-02-13T10:00:36;102313.91;;;3.54;100.00
18022;BME280;9136;48.822;7.966;2023-02-13T10:03:28;102337.84;;;3.72;100.00
18022;BME280;9136;48.822;7.966;2023-02-13T10:06:23;102326.63;;;3.74;100.00
18022;BME280;9136;48.822;7.966;2023-02-13T10:09:21;102344.53;;;3.94;100.00
18022;BME280;9136;48.822;7.966;2023-02-13T10:12:29;102348.16;;;3.99;100.00
18022;BME280;9136;48.822;7.966;2023-02-13T10:15:27;102331.34;;;3.86;100.00
18022;BME280;9136;48.822;7.966;2023-02-13T10:18:21;102348.84;;;3.93;100.00
18022;BME280;9136;48.822;7.966;2023-02-13T10:21:13;102344.81;;;4.05;100.00
18022;BME280;9136;48.822;7.966;2023-02-13T10:24:05;102351.56;;;4.28;100.00
18022;BME280;9136;48.822;7.966;2023-02-13T10:26:54;102357.56;;;4.25;100.00
18022;BME280;9136;48.822;7.966;2023-02-13T10:29:45;102345.22;;;4.18;100.00
18022;BME280;9136;48.822;7.966;2023-02-13T10:32:58;102328.25;;;4.01;100.00
18022;BME280;9136;48.822;7.966;2023-02-13T10:36:15;102361.19;;;4.00;100.00
18022;BME280;9136;48.822;7.966;2023-02-13T10:39:22;102360.88;;;4.20;100.00
18022;BME280;9136;48.822;7.966;2023-02-13T10:42:19;102349.03;;;3.99;100.00
18022;BME280;9136;48.822;7.966;2023-02-13T10:45:24;102344.72;;;4.00;100.00
18022;BME280;9136;48.822;7.966;2023-02-13T10:48:25;102353.16;;;3.93;100.00
18022;BME280;9136;48.822;7.966;2023-02-13T10:51:22;102338.13;;;3.83;100.00
18022;BME280;9136;48.822;7.966;2023-02-13T10:54:27;102351.06;;;4.10;100.00
18022;BME280;9136;48.822;7.966;2023-02-13T10:57:21;102339.41;;;4.27;100.00
18022;BME280;9136;48.822;7.966;2023-02-13T11:00:17;102328.59;;;4.45;100.00
18022;BME280;9136;48.822;7.966;2023-02-13T11:03:17;102346.53;;;4.67;100.00
18022;BME280;9136;48.822;7.966;2023-02-13T11:06:07;102338.66;;;4.64;100.00
18022;BME280;9136;48.822;7.966;2023-02-13T11:08:56;102325.94;;;4.43;100.00
18022;BME280;9136;48.822;7.966;2023-02-13T11:11:45;102335.22;;;4.34;100.00
18022;BME280;9136;48.822;7.966;2023-02-13T11:14:33;102332.19;;;4.50;100.00
18022;BME280;9136;48.822;7.966;2023-02-13T11:17:22;102332.22;;;4.51;100.00
18022;BME280;9136;48.822;7.966;2023-02-13T11:20:25;102332.44;;;4.59;100.00
18022;BME280;9136;48.822;7.966;2023-02-13T11:23:26;102330.72;;;4.61;100.00
18022;BME280;9136;48.822;7.966;2023-02-13T11:26:23;102321.38;;;4.68;100.00
18022;BME280;9136;48.822;7.966;2023-02-13T11:29:21;102328.25;;;4.66;100.00
18022;BME280;9136;48.822;7.966;2023-02-13T11:32:19;102318.59;;;4.62;100.00
18022;BME280;9136;48.822;7.966;2023-02-13T11:35:27;102316.97;;;4.65;100.00
18022;BME280;9136;48.822;7.966;2023-02-13T11:38:21;102318.38;;;4.87;100.00
18022;BME280;9136;48.822;7.966;2023-02-13T11:41:12;102310.78;;;4.96;100.00
18022;BME280;9136;48.822;7.966;2023-02-13T11:44:01;102305.66;;;5.01;100.00
18022;BME280;9136;48.822;7.966;2023-02-13T11:46:53;102305.41;;;4.90;100.00
18022;BME280;9136;48.822;7.966;2023-02-13T11:49:45;102303.19;;;5.05;100.00
18022;BME280;9136;48.822;7.966;2023-02-13T11:52:34;102307.13;;;5.26;100.00
18022;BME280;9136;48.822;7.966;2023-02-13T11:55:29;102317.69;;;5.32;100.00
18022;BME280;9136;48.822;7.966;2023-02-13T11:58:23;102313.22;;;5.26;100.00
18022;BME280;9136;48.822;7.966;2023-02-13T12:01:26;102302.72;;;5.23;100.00
18022;BME280;9136;48.822;7.966;2023-02-13T12:04:17;102304.31;;;5.16;100.00
18022;BME280;9136;48.822;7.966;2023-02-13T12:07:12;102305.09;;;5.52;100.00
18022;BME280;9136;48.822;7.966;2023-02-13T12:10:07;102300.22;;;5.68;100.00
18022;BME280;9136;48.822;7.966;2023-02-13T12:13:08;102299.50;;;5.35;100.00
18022;BME280;9136;48.822;7.966;2023-02-13T12:16:03;102298.94;;;5.50;100.00
18022;BME280;9136;48.822;7.966;2023-02-13T12:18:57;102300.47;;;5.79;100.00
18022;BME280;9136;48.822;7.966;2023-02-13T12:25:38;102290.78;;;6.17;100.00
18022;BME280;9136;48.822;7.966;2023-02-13T12:28:36;102297.19;;;6.35;100.00
18022;BME280;9136;48.822;7.966;2023-02-13T12:31:51;102297.44;;;6.47;100.00
18022;BME280;9136;48.822;7.966;2023-02-13T12:35:13;102282.66;;;6.49;100.00
18022;BME280;9136;48.822;7.966;2023-02-13T12:38:11;102280.38;;;6.69;100.00
18022;BME280;9136;48.822;7.966;2023-02-13T12:41:14;102288.88;;;7.11;100.00
18022;BME280;9136;48.822;7.966;2023-02-13T12:44:27;102274.91;;;6.55;100.00
18022;BME280;9136;48.822;7.966;2023-02-13T12:47:21;102272.25;;;6.52;100.00
18022;BME280;9136;48.822;7.966;2023-02-13T12:50:26;102285.50;;;6.63;100.00
18022;BME280;9136;48.822;7.966;2023-02-13T12:53:30;102278.19;;;6.42;100.00
18022;BME280;9136;48.822;7.966;2023-02-13T13:00:02;102285.91;;;6.88;100.00
18022;BME280;9136;48.822;7.966;2023-02-13T13:03:22;102265.47;;;7.21;100.00
18022;BME280;9136;48.822;7.966;2023-02-13T13:06:35;102282.63;;;7.64;100.00
18022;BME280;9136;48.822;7.966;2023-02-13T13:13:04;102263.34;;;8.36;100.00
18022;BME280;9136;48.822;7.966;2023-02-13T13:16:04;102264.88;;;9.24;100.00
18022;BME280;9136;48.822;7.966;2023-02-13T13:19:05;102272.19;;;9.95;100.00
18022;BME280;9136;48.822;7.966;2023-02-13T13:22:01;102269.38;;;9.49;100.00
18022;BME280;9136;48.822;7.966;2023-02-13T13:24:58;102276.28;;;9.30;100.00
18022;BME280;9136;48.822;7.966;2023-02-13T13:27:54;102270.09;;;9.22;100.00
18022;BME280;9136;48.822;7.966;2023-02-13T13:30:45;102271.78;;;9.08;100.00
18022;BME280;9136;48.822;7.966;2023-02-13T13:33:38;102265.56;;;8.92;100.00
18022;BME280;9136;48.822;7.966;2023-02-13T13:36:35;102247.84;;;8.60;100.00
18022;BME280;9136;48.822;7.966;2023-02-13T13:39:38;102262.81;;;8.77;100.00
18022;BME280;9136;48.822;7.966;2023-02-13T13:42:37;102266.72;;;8.29;100.00
18022;BME280;9136;48.822;7.966;2023-02-13T13:45:34;102263.22;;;8.24;100.00
18022;BME280;9136;48.822;7.966;2023-02-13T13:48:51;102263.19;;;8.22;100.00
18022;BME280;9136;48.822;7.966;2023-02-13T13:51:45;102253.50;;;8.14;100.00
18022;BME280;9136;48.822;7.966;2023-02-13T13:54:34;102231.59;;;8.02;100.00
18022;BME280;9136;48.822;7.966;2023-02-13T13:57:22;102244.00;;;8.22;100.00
18022;BME280;9136;48.822;7.966;2023-02-13T14:00:26;102249.25;;;8.23;100.00
18022;BME280;9136;48.822;7.966;2023-02-13T14:03:22;102238.63;;;8.10;100.00
18022;BME280;9136;48.822;7.966;2023-02-13T14:06:14;102226.09;;;7.81;100.00
18022;BME280;9136;48.822;7.966;2023-02-13T14:12:35;102238.41;;;7.88;100.00
18022;BME280;9136;48.822;7.966;2023-02-13T14:15:49;102241.00;;;7.87;100.00
18022;BME280;9136;48.822;7.966;2023-02-13T14:18:44;102248.09;;;7.97;100.00
18022;BME280;9136;48.822;7.966;2023-02-13T14:21:35;102239.38;;;7.96;100.00
18022;BME280;9136;48.822;7.966;2023-02-13T14:24:23;102239.19;;;7.80;100.00
18022;BME280;9136;48.822;7.966;2023-02-13T14:27:20;102232.94;;;7.67;100.00
18022;BME280;9136;48.822;7.966;2023-02-13T14:30:25;102240.13;;;7.83;100.00
18022;BME280;9136;48.822;7.966;2023-02-13T14:33:24;102214.50;;;7.56;100.00
18022;BME280;9136;48.822;7.966;2023-02-13T14:36:19;102219.66;;;7.52;100.00
18022;BME280;9136;48.822;7.966;2023-02-13T14:39:19;102204.75;;;7.43;100.00
18022;BME280;9136;48.822;7.966;2023-02-13T14:42:22;102202.00;;;7.32;100.00
18022;BME280;9136;48.822;7.966;2023-02-13T14:45:15;102204.63;;;7.32;100.00
18022;BME280;9136;48.822;7.966;2023-02-13T14:48:07;102193.25;;;7.27;100.00
18022;BME280;9136;48.822;7.966;2023-02-13T14:50:59;102197.69;;;7.34;100.00
18022;BME280;9136;48.822;7.966;2023-02-13T14:53:51;102201.09;;;7.27;100.00
18022;BME280;9136;48.822;7.966;2023-02-13T14:56:44;102190.53;;;7.21;100.00
18022;BME280;9136;48.822;7.966;2023-02-13T14:59:34;102202.75;;;7.22;100.00
18022;BME280;9136;48.822;7.966;2023-02-13T15:02:25;102180.06;;;7.18;100.00
18022;BME280;9136;48.822;7.966;2023-02-13T15:05:15;102197.59;;;7.27;100.00
18022;BME280;9136;48.822;7.966;2023-02-13T15:08:10;102179.94;;;7.09;100.00
18022;BME280;9136;48.822;7.966;2023-02-13T15:11:00;102184.38;;;7.14;100.00
18022;BME280;9136;48.822;7.966;2023-02-13T15:13:49;102179.16;;;7.16;100.00
18022;BME280;9136;48.822;7.966;2023-02-13T15:16:37;102173.88;;;7.11;100.00
18022;BME280;9136;48.822;7.966;2023-02-13T15:19:25;102153.78;;;7.07;100.00
18022;BME280;9136;48.822;7.966;2023-02-13T15:22:18;102159.88;;;7.05;100.00
18022;BME280;9136;48.822;7.966;2023-02-13T15:25:07;102175.72;;;7.22;100.00
18022;BME280;9136;48.822;7.966;2023-02-13T15:27:55;102162.75;;;7.26;100.00
18022;BME280;9136;48.822;7.966;2023-02-13T15:30:53;102168.97;;;7.37;100.00